sensor_id;sensor_type;location;lat;lon;timestamp;P1;durP1;ratioP1;P2;durP2;ratioP2
70270;SDS011;57680;54.292;18.598;2022-10-16T00:02:18;76.00;;;24.23;;
70270;SDS011;57680;54.292;18.598;2022-10-16T00:04:44;80.47;;;24.47;;
70270;SDS011;57680;54.292;18.598;2022-10-16T00:07:09;80.18;;;25.05;;
70270;SDS011;57680;54.292;18.598;2022-10-16T00:09:35;82.20;;;24.70;;
70270;SDS011;57680;54.292;18.598;2022-10-16T00:12:00;77.67;;;24.17;;
70270;SDS011;57680;54.292;18.598;2022-10-16T00:14:26;85.90;;;25.80;;
70270;SDS011;57680;54.292;18.598;2022-10-16T00:16:52;82.13;;;24.53;;
70270;SDS011;57680;54.292;18.598;2022-10-16T00:19:17;72.68;;;24.98;;
70270;SDS011;57680;54.292;18.598;2022-10-16T00:21:43;72.30;;;24.20;;
70270;SDS011;57680;54.292;18.598;2022-10-16T00:24:09;76.27;;;24.43;;
70270;SDS011;57680;54.292;18.598;2022-10-16T00:26:35;69.85;;;24.25;;
70270;SDS011;57680;54.292;18.598;2022-10-16T00:29:02;70.55;;;23.67;;
70270;SDS011;57680;54.292;18.598;2022-10-16T00:31:29;64.75;;;22.58;;
70270;SDS011;57680;54.292;18.598;2022-10-16T00:33:55;68.17;;;24.37;;
70270;SDS011;57680;54.292;18.598;2022-10-16T00:36:22;63.47;;;22.45;;
70270;SDS011;57680;54.292;18.598;2022-10-16T00:38:53;67.90;;;23.92;;
70270;SDS011;57680;54.292;18.598;2022-10-16T00:41:20;70.35;;;23.60;;
70270;SDS011;57680;54.292;18.598;2022-10-16T00:49:08;63.78;;;23.65;;
70270;SDS011;57680;54.292;18.598;2022-10-16T00:51:35;67.38;;;23.17;;
70270;SDS011;57680;54.292;18.598;2022-10-16T00:54:09;68.57;;;22.60;;
70270;SDS011;57680;54.292;18.598;2022-10-16T00:56:39;62.37;;;21.60;;
70270;SDS011;57680;54.292;18.598;2022-10-16T00:59:06;61.22;;;20.80;;
70270;SDS011;57680;54.292;18.598;2022-10-16T01:01:36;58.28;;;21.17;;
70270;SDS011;57680;54.292;18.598;2022-10-16T01:04:02;64.43;;;22.27;;
70270;SDS011;57680;54.292;18.598;2022-10-16T01:09:04;66.55;;;21.75;;
70270;SDS011;57680;54.292;18.598;2022-10-16T01:15:01;62.53;;;21.57;;
70270;SDS011;57680;54.292;18.598;2022-10-16T01:17:18;67.75;;;22.65;;
70270;SDS011;57680;54.292;18.598;2022-10-16T01:20:07;64.13;;;21.10;;
70270;SDS011;57680;54.292;18.598;2022-10-16T01:22:35;56.78;;;20.15;;
70270;SDS011;57680;54.292;18.598;2022-10-16T01:25:07;57.33;;;20.95;;
70270;SDS011;57680;54.292;18.598;2022-10-16T01:27:37;58.73;;;21.33;;
70270;SDS011;57680;54.292;18.598;2022-10-16T01:30:11;55.58;;;20.25;;
70270;SDS011;57680;54.292;18.598;2022-10-16T01:32:49;56.60;;;20.95;;
70270;SDS011;57680;54.292;18.598;2022-10-16T01:35:34;57.30;;;20.77;;
70270;SDS011;57680;54.292;18.598;2022-10-16T01:40:39;53.20;;;19.60;;
70270;SDS011;57680;54.292;18.598;2022-10-16T01:43:11;52.78;;;19.40;;
70270;SDS011;57680;54.292;18.598;2022-10-16T01:45:41;53.83;;;19.85;;
70270;SDS011;57680;54.292;18.598;2022-10-16T01:48:09;52.88;;;20.10;;
70270;SDS011;57680;54.292;18.598;2022-10-16T01:50:39;50.75;;;19.52;;
70270;SDS011;57680;54.292;18.598;2022-10-16T01:53:09;49.67;;;19.57;;
70270;SDS011;57680;54.292;18.598;2022-10-16T01:55:39;52.53;;;20.10;;
70270;SDS011;57680;54.292;18.598;2022-10-16T01:58:10;49.38;;;18.25;;
70270;SDS011;57680;54.292;18.598;2022-10-16T02:00:38;45.00;;;17.98;;
70270;SDS011;57680;54.292;18.598;2022-10-16T02:03:06;40.35;;;15.95;;
70270;SDS011;57680;54.292;18.598;2022-10-16T02:05:44;41.43;;;16.40;;
70270;SDS011;57680;54.292;18.598;2022-10-16T02:08:12;39.88;;;16.33;;
70270;SDS011;57680;54.292;18.598;2022-10-16T02:10:38;40.40;;;16.38;;
70270;SDS011;57680;54.292;18.598;2022-10-16T02:13:11;36.20;;;15.23;;
70270;SDS011;57680;54.292;18.598;2022-10-16T02:15:41;34.73;;;14.40;;
70270;SDS011;57680;54.292;18.598;2022-10-16T02:18:06;35.22;;;15.07;;
70270;SDS011;57680;54.292;18.598;2022-10-16T02:20:34;33.50;;;14.80;;
70270;SDS011;57680;54.292;18.598;2022-10-16T02:23:06;33.70;;;14.53;;
70270;SDS011;57680;54.292;18.598;2022-10-16T02:25:37;36.83;;;14.88;;
70270;SDS011;57680;54.292;18.598;2022-10-16T02:28:17;37.15;;;14.98;;
70270;SDS011;57680;54.292;18.598;2022-10-16T02:30:57;36.40;;;15.13;;
70270;SDS011;57680;54.292;18.598;2022-10-16T02:33:26;39.60;;;16.08;;
70270;SDS011;57680;54.292;18.598;2022-10-16T02:35:54;38.13;;;16.00;;
70270;SDS011;57680;54.292;18.598;2022-10-16T02:38:21;37.28;;;15.13;;
70270;SDS011;57680;54.292;18.598;2022-10-16T02:40:47;41.25;;;14.90;;
70270;SDS011;57680;54.292;18.598;2022-10-16T02:43:13;37.50;;;15.13;;
70270;SDS011;57680;54.292;18.598;2022-10-16T02:45:39;33.23;;;15.17;;
70270;SDS011;57680;54.292;18.598;2022-10-16T02:48:05;36.97;;;15.85;;
70270;SDS011;57680;54.292;18.598;2022-10-16T02:50:31;37.23;;;14.93;;
70270;SDS011;57680;54.292;18.598;2022-10-16T02:52:56;38.88;;;15.30;;
70270;SDS011;57680;54.292;18.598;2022-10-16T02:55:22;35.63;;;15.20;;
70270;SDS011;57680;54.292;18.598;2022-10-16T02:57:47;35.00;;;14.18;;
70270;SDS011;57680;54.292;18.598;2022-10-16T03:00:14;37.33;;;15.47;;
70270;SDS011;57680;54.292;18.598;2022-10-16T03:02:40;39.38;;;15.50;;
70270;SDS011;57680;54.292;18.598;2022-10-16T03:05:06;38.87;;;15.53;;
70270;SDS011;57680;54.292;18.598;2022-10-16T03:07:33;38.72;;;15.02;;
70270;SDS011;57680;54.292;18.598;2022-10-16T03:09:58;35.30;;;14.90;;
70270;SDS011;57680;54.292;18.598;2022-10-16T03:12:28;36.03;;;14.87;;
70270;SDS011;57680;54.292;18.598;2022-10-16T03:14:57;36.75;;;14.95;;
70270;SDS011;57680;54.292;18.598;2022-10-16T03:17:23;35.63;;;14.52;;
70270;SDS011;57680;54.292;18.598;2022-10-16T03:19:49;39.33;;;15.52;;
70270;SDS011;57680;54.292;18.598;2022-10-16T03:22:15;36.07;;;15.33;;
70270;SDS011;57680;54.292;18.598;2022-10-16T03:24:40;32.47;;;14.30;;
70270;SDS011;57680;54.292;18.598;2022-10-16T03:27:06;37.20;;;15.00;;
70270;SDS011;57680;54.292;18.598;2022-10-16T03:29:32;36.95;;;14.63;;
70270;SDS011;57680;54.292;18.598;2022-10-16T03:31:58;37.17;;;14.90;;
70270;SDS011;57680;54.292;18.598;2022-10-16T03:34:24;36.40;;;13.70;;
70270;SDS011;57680;54.292;18.598;2022-10-16T03:36:49;38.72;;;14.88;;
70270;SDS011;57680;54.292;18.598;2022-10-16T03:39:15;36.87;;;15.60;;
70270;SDS011;57680;54.292;18.598;2022-10-16T03:41:41;35.60;;;15.45;;
70270;SDS011;57680;54.292;18.598;2022-10-16T03:44:06;36.67;;;15.37;;
70270;SDS011;57680;54.292;18.598;2022-10-16T03:46:32;35.23;;;14.23;;
70270;SDS011;57680;54.292;18.598;2022-10-16T03:48:57;36.38;;;15.18;;
70270;SDS011;57680;54.292;18.598;2022-10-16T03:51:23;33.10;;;14.63;;
70270;SDS011;57680;54.292;18.598;2022-10-16T03:53:48;35.67;;;14.43;;
70270;SDS011;57680;54.292;18.598;2022-10-16T03:56:14;34.20;;;14.38;;
70270;SDS011;57680;54.292;18.598;2022-10-16T03:58:39;33.40;;;14.60;;
70270;SDS011;57680;54.292;18.598;2022-10-16T04:03:39;34.33;;;15.07;;
70270;SDS011;57680;54.292;18.598;2022-10-16T04:06:05;33.38;;;14.10;;
70270;SDS011;57680;54.292;18.598;2022-10-16T04:08:30;34.60;;;14.90;;
70270;SDS011;57680;54.292;18.598;2022-10-16T04:10:59;35.63;;;14.88;;
70270;SDS011;57680;54.292;18.598;2022-10-16T04:13:24;33.60;;;14.13;;
70270;SDS011;57680;54.292;18.598;2022-10-16T04:15:50;33.38;;;14.60;;
70270;SDS011;57680;54.292;18.598;2022-10-16T04:18:15;33.37;;;13.77;;
70270;SDS011;57680;54.292;18.598;2022-10-16T04:20:41;33.43;;;14.70;;
70270;SDS011;57680;54.292;18.598;2022-10-16T04:23:06;33.80;;;14.50;;
70270;SDS011;57680;54.292;18.598;2022-10-16T04:25:32;35.67;;;15.33;;
70270;SDS011;57680;54.292;18.598;2022-10-16T04:27:58;36.40;;;15.50;;
70270;SDS011;57680;54.292;18.598;2022-10-16T04:30:23;34.60;;;14.57;;
70270;SDS011;57680;54.292;18.598;2022-10-16T04:32:49;33.77;;;14.60;;
70270;SDS011;57680;54.292;18.598;2022-10-16T04:35:16;36.05;;;15.52;;
70270;SDS011;57680;54.292;18.598;2022-10-16T04:37:43;33.50;;;14.73;;
70270;SDS011;57680;54.292;18.598;2022-10-16T04:40:09;37.60;;;15.23;;
70270;SDS011;57680;54.292;18.598;2022-10-16T04:42:34;38.70;;;15.43;;
70270;SDS011;57680;54.292;18.598;2022-10-16T04:45:00;39.75;;;16.35;;
70270;SDS011;57680;54.292;18.598;2022-10-16T04:47:26;36.53;;;14.97;;
70270;SDS011;57680;54.292;18.598;2022-10-16T04:49:51;38.90;;;15.90;;
70270;SDS011;57680;54.292;18.598;2022-10-16T04:52:17;41.30;;;16.07;;
70270;SDS011;57680;54.292;18.598;2022-10-16T04:54:44;38.47;;;16.13;;
70270;SDS011;57680;54.292;18.598;2022-10-16T04:57:10;40.42;;;16.38;;
70270;SDS011;57680;54.292;18.598;2022-10-16T04:59:36;39.67;;;16.27;;
70270;SDS011;57680;54.292;18.598;2022-10-16T05:02:02;41.25;;;17.05;;
70270;SDS011;57680;54.292;18.598;2022-10-16T05:04:27;45.97;;;17.87;;
70270;SDS011;57680;54.292;18.598;2022-10-16T05:06:53;43.85;;;16.88;;
70270;SDS011;57680;54.292;18.598;2022-10-16T05:09:19;43.53;;;18.40;;
70270;SDS011;57680;54.292;18.598;2022-10-16T05:11:44;45.20;;;16.65;;
70270;SDS011;57680;54.292;18.598;2022-10-16T05:14:10;45.33;;;17.63;;
70270;SDS011;57680;54.292;18.598;2022-10-16T05:16:35;47.43;;;19.53;;
70270;SDS011;57680;54.292;18.598;2022-10-16T05:19:01;44.83;;;19.02;;
70270;SDS011;57680;54.292;18.598;2022-10-16T05:21:26;46.87;;;19.43;;
70270;SDS011;57680;54.292;18.598;2022-10-16T05:23:52;46.27;;;18.70;;
70270;SDS011;57680;54.292;18.598;2022-10-16T05:26:19;47.17;;;19.88;;
70270;SDS011;57680;54.292;18.598;2022-10-16T05:28:45;46.70;;;17.92;;
70270;SDS011;57680;54.292;18.598;2022-10-16T05:31:11;47.27;;;20.00;;
70270;SDS011;57680;54.292;18.598;2022-10-16T05:33:36;50.50;;;20.40;;
70270;SDS011;57680;54.292;18.598;2022-10-16T05:36:03;46.10;;;19.63;;
70270;SDS011;57680;54.292;18.598;2022-10-16T05:38:31;47.38;;;19.48;;
70270;SDS011;57680;54.292;18.598;2022-10-16T05:40:56;46.38;;;20.02;;
70270;SDS011;57680;54.292;18.598;2022-10-16T05:43:23;48.40;;;20.27;;
70270;SDS011;57680;54.292;18.598;2022-10-16T05:45:55;49.67;;;19.98;;
70270;SDS011;57680;54.292;18.598;2022-10-16T05:48:22;48.97;;;19.67;;
70270;SDS011;57680;54.292;18.598;2022-10-16T05:50:48;47.75;;;20.70;;
70270;SDS011;57680;54.292;18.598;2022-10-16T05:53:22;49.00;;;20.67;;
70270;SDS011;57680;54.292;18.598;2022-10-16T05:55:53;48.30;;;20.25;;
70270;SDS011;57680;54.292;18.598;2022-10-16T05:58:20;48.55;;;21.23;;
70270;SDS011;57680;54.292;18.598;2022-10-16T06:00:54;47.72;;;20.85;;
70270;SDS011;57680;54.292;18.598;2022-10-16T06:03:20;50.72;;;20.88;;
70270;SDS011;57680;54.292;18.598;2022-10-16T06:05:46;48.27;;;20.37;;
70270;SDS011;57680;54.292;18.598;2022-10-16T06:08:12;50.58;;;20.70;;
70270;SDS011;57680;54.292;18.598;2022-10-16T06:10:38;49.50;;;20.87;;
70270;SDS011;57680;54.292;18.598;2022-10-16T06:13:03;50.17;;;21.08;;
70270;SDS011;57680;54.292;18.598;2022-10-16T06:15:29;48.57;;;21.30;;
70270;SDS011;57680;54.292;18.598;2022-10-16T06:17:55;48.05;;;20.58;;
70270;SDS011;57680;54.292;18.598;2022-10-16T06:20:20;47.23;;;20.50;;
70270;SDS011;57680;54.292;18.598;2022-10-16T06:22:46;49.57;;;20.93;;
70270;SDS011;57680;54.292;18.598;2022-10-16T06:25:11;51.33;;;21.20;;
70270;SDS011;57680;54.292;18.598;2022-10-16T06:27:39;51.87;;;21.57;;
70270;SDS011;57680;54.292;18.598;2022-10-16T06:30:06;48.03;;;20.20;;
70270;SDS011;57680;54.292;18.598;2022-10-16T06:32:32;48.20;;;20.95;;
70270;SDS011;57680;54.292;18.598;2022-10-16T06:34:58;44.37;;;20.20;;
70270;SDS011;57680;54.292;18.598;2022-10-16T06:37:23;49.35;;;20.45;;
70270;SDS011;57680;54.292;18.598;2022-10-16T06:39:50;47.53;;;21.02;;
70270;SDS011;57680;54.292;18.598;2022-10-16T06:42:17;49.73;;;21.60;;
70270;SDS011;57680;54.292;18.598;2022-10-16T06:44:44;44.92;;;21.05;;
70270;SDS011;57680;54.292;18.598;2022-10-16T06:47:10;48.85;;;21.13;;
70270;SDS011;57680;54.292;18.598;2022-10-16T06:49:35;48.42;;;21.63;;
70270;SDS011;57680;54.292;18.598;2022-10-16T06:52:01;49.57;;;21.40;;
70270;SDS011;57680;54.292;18.598;2022-10-16T06:54:27;49.42;;;20.75;;
70270;SDS011;57680;54.292;18.598;2022-10-16T06:56:53;48.60;;;20.77;;
70270;SDS011;57680;54.292;18.598;2022-10-16T06:59:20;45.70;;;20.92;;
70270;SDS011;57680;54.292;18.598;2022-10-16T07:01:46;46.63;;;20.33;;
70270;SDS011;57680;54.292;18.598;2022-10-16T07:04:12;46.00;;;21.08;;
70270;SDS011;57680;54.292;18.598;2022-10-16T07:06:37;47.07;;;21.27;;
70270;SDS011;57680;54.292;18.598;2022-10-16T07:09:04;42.97;;;19.90;;
70270;SDS011;57680;54.292;18.598;2022-10-16T07:11:31;45.50;;;20.77;;
70270;SDS011;57680;54.292;18.598;2022-10-16T07:13:58;44.43;;;20.57;;
70270;SDS011;57680;54.292;18.598;2022-10-16T07:16:25;46.97;;;21.63;;
70270;SDS011;57680;54.292;18.598;2022-10-16T07:18:54;47.80;;;21.08;;
70270;SDS011;57680;54.292;18.598;2022-10-16T07:21:24;45.92;;;20.27;;
70270;SDS011;57680;54.292;18.598;2022-10-16T07:23:55;43.22;;;20.33;;
70270;SDS011;57680;54.292;18.598;2022-10-16T07:26:23;46.57;;;20.57;;
70270;SDS011;57680;54.292;18.598;2022-10-16T07:28:49;48.10;;;22.05;;
70270;SDS011;57680;54.292;18.598;2022-10-16T07:31:16;43.55;;;21.30;;
70270;SDS011;57680;54.292;18.598;2022-10-16T07:33:44;45.05;;;20.55;;
70270;SDS011;57680;54.292;18.598;2022-10-16T07:36:12;45.67;;;20.80;;
70270;SDS011;57680;54.292;18.598;2022-10-16T07:38:38;44.40;;;19.97;;
70270;SDS011;57680;54.292;18.598;2022-10-16T07:41:04;42.75;;;19.45;;
70270;SDS011;57680;54.292;18.598;2022-10-16T07:43:35;47.17;;;20.83;;
70270;SDS011;57680;54.292;18.598;2022-10-16T07:46:01;44.73;;;20.70;;
70270;SDS011;57680;54.292;18.598;2022-10-16T07:48:28;44.95;;;20.17;;
70270;SDS011;57680;54.292;18.598;2022-10-16T07:50:59;43.30;;;19.45;;
70270;SDS011;57680;54.292;18.598;2022-10-16T07:53:26;42.63;;;19.23;;
70270;SDS011;57680;54.292;18.598;2022-10-16T07:55:54;39.53;;;19.00;;
70270;SDS011;57680;54.292;18.598;2022-10-16T07:58:23;40.90;;;20.00;;
70270;SDS011;57680;54.292;18.598;2022-10-16T08:00:49;40.78;;;18.85;;
70270;SDS011;57680;54.292;18.598;2022-10-16T08:03:14;40.33;;;18.50;;
70270;SDS011;57680;54.292;18.598;2022-10-16T08:05:40;43.67;;;17.97;;
70270;SDS011;57680;54.292;18.598;2022-10-16T08:08:05;40.13;;;19.25;;
70270;SDS011;57680;54.292;18.598;2022-10-16T08:10:31;41.63;;;19.17;;
70270;SDS011;57680;54.292;18.598;2022-10-16T08:12:57;42.42;;;18.80;;
70270;SDS011;57680;54.292;18.598;2022-10-16T08:15:23;42.23;;;18.63;;
70270;SDS011;57680;54.292;18.598;2022-10-16T08:17:59;41.60;;;19.52;;
70270;SDS011;57680;54.292;18.598;2022-10-16T08:20:26;40.83;;;18.50;;
70270;SDS011;57680;54.292;18.598;2022-10-16T08:22:53;42.23;;;19.77;;
70270;SDS011;57680;54.292;18.598;2022-10-16T08:25:19;40.67;;;18.92;;
70270;SDS011;57680;54.292;18.598;2022-10-16T08:27:45;42.92;;;18.92;;
70270;SDS011;57680;54.292;18.598;2022-10-16T08:30:13;37.80;;;18.55;;
70270;SDS011;57680;54.292;18.598;2022-10-16T08:32:39;38.88;;;18.00;;
70270;SDS011;57680;54.292;18.598;2022-10-16T08:35:06;39.30;;;18.53;;
70270;SDS011;57680;54.292;18.598;2022-10-16T08:37:32;40.95;;;17.52;;
70270;SDS011;57680;54.292;18.598;2022-10-16T08:39:58;40.58;;;18.85;;
70270;SDS011;57680;54.292;18.598;2022-10-16T08:47:22;40.97;;;18.27;;
70270;SDS011;57680;54.292;18.598;2022-10-16T08:49:56;36.30;;;17.85;;
70270;SDS011;57680;54.292;18.598;2022-10-16T08:52:25;38.23;;;17.53;;
70270;SDS011;57680;54.292;18.598;2022-10-16T08:54:58;38.53;;;17.25;;
70270;SDS011;57680;54.292;18.598;2022-10-16T08:57:25;39.88;;;17.63;;
70270;SDS011;57680;54.292;18.598;2022-10-16T08:59:55;37.13;;;16.85;;
70270;SDS011;57680;54.292;18.598;2022-10-16T09:10:19;39.47;;;18.00;;
70270;SDS011;57680;54.292;18.598;2022-10-16T09:13:15;36.70;;;17.42;;
70270;SDS011;57680;54.292;18.598;2022-10-16T09:18:45;35.00;;;17.23;;
70270;SDS011;57680;54.292;18.598;2022-10-16T09:21:41;37.65;;;16.63;;
70270;SDS011;57680;54.292;18.598;2022-10-16T09:24:16;38.60;;;16.55;;
70270;SDS011;57680;54.292;18.598;2022-10-16T09:26:44;33.60;;;16.10;;
70270;SDS011;57680;54.292;18.598;2022-10-16T09:29:11;35.72;;;16.80;;
70270;SDS011;57680;54.292;18.598;2022-10-16T09:31:37;32.90;;;16.50;;
70270;SDS011;57680;54.292;18.598;2022-10-16T09:34:03;33.38;;;16.63;;
70270;SDS011;57680;54.292;18.598;2022-10-16T09:36:35;35.42;;;16.15;;
70270;SDS011;57680;54.292;18.598;2022-10-16T09:39:07;33.85;;;16.00;;
70270;SDS011;57680;54.292;18.598;2022-10-16T09:41:39;37.70;;;16.70;;
70270;SDS011;57680;54.292;18.598;2022-10-16T09:47:05;31.02;;;15.43;;
70270;SDS011;57680;54.292;18.598;2022-10-16T09:49:58;31.23;;;14.63;;
70270;SDS011;57680;54.292;18.598;2022-10-16T09:52:30;30.63;;;14.43;;
70270;SDS011;57680;54.292;18.598;2022-10-16T09:54:57;27.57;;;13.30;;
70270;SDS011;57680;54.292;18.598;2022-10-16T09:57:28;28.17;;;13.98;;
70270;SDS011;57680;54.292;18.598;2022-10-16T09:59:55;28.55;;;13.55;;
70270;SDS011;57680;54.292;18.598;2022-10-16T10:02:33;29.73;;;13.30;;
70270;SDS011;57680;54.292;18.598;2022-10-16T10:05:01;28.20;;;13.23;;
70270;SDS011;57680;54.292;18.598;2022-10-16T10:07:28;28.40;;;13.50;;
70270;SDS011;57680;54.292;18.598;2022-10-16T10:10:25;28.15;;;13.20;;
70270;SDS011;57680;54.292;18.598;2022-10-16T10:12:53;27.25;;;13.10;;
70270;SDS011;57680;54.292;18.598;2022-10-16T10:15:20;29.05;;;13.90;;
70270;SDS011;57680;54.292;18.598;2022-10-16T10:20:30;27.63;;;13.50;;
70270;SDS011;57680;54.292;18.598;2022-10-16T10:22:59;32.30;;;13.77;;
70270;SDS011;57680;54.292;18.598;2022-10-16T10:25:34;30.90;;;14.85;;
70270;SDS011;57680;54.292;18.598;2022-10-16T10:31:00;29.83;;;13.90;;
70270;SDS011;57680;54.292;18.598;2022-10-16T10:36:22;28.95;;;13.70;;
70270;SDS011;57680;54.292;18.598;2022-10-16T10:44:26;30.08;;;14.13;;
70270;SDS011;57680;54.292;18.598;2022-10-16T10:54:45;27.73;;;13.40;;
70270;SDS011;57680;54.292;18.598;2022-10-16T11:00:28;27.87;;;13.00;;
70270;SDS011;57680;54.292;18.598;2022-10-16T11:03:08;27.80;;;13.68;;
70270;SDS011;57680;54.292;18.598;2022-10-16T11:08:32;29.50;;;14.13;;
70270;SDS011;57680;54.292;18.598;2022-10-16T11:11:14;30.00;;;13.43;;
70270;SDS011;57680;54.292;18.598;2022-10-16T11:14:15;29.17;;;13.53;;
70270;SDS011;57680;54.292;18.598;2022-10-16T11:17:16;28.77;;;14.10;;
70270;SDS011;57680;54.292;18.598;2022-10-16T11:22:51;26.80;;;13.88;;
70270;SDS011;57680;54.292;18.598;2022-10-16T11:25:27;26.70;;;13.73;;
70270;SDS011;57680;54.292;18.598;2022-10-16T11:30:52;26.80;;;13.35;;
70270;SDS011;57680;54.292;18.598;2022-10-16T11:33:25;24.13;;;13.20;;
70270;SDS011;57680;54.292;18.598;2022-10-16T11:36:04;24.38;;;12.77;;
70270;SDS011;57680;54.292;18.598;2022-10-16T11:41:27;23.57;;;12.33;;
70270;SDS011;57680;54.292;18.598;2022-10-16T11:49:38;22.42;;;11.68;;
70270;SDS011;57680;54.292;18.598;2022-10-16T11:54:45;20.37;;;11.37;;
70270;SDS011;57680;54.292;18.598;2022-10-16T11:57:23;21.15;;;11.50;;
70270;SDS011;57680;54.292;18.598;2022-10-16T11:59:55;20.70;;;10.75;;
70270;SDS011;57680;54.292;18.598;2022-10-16T12:02:49;20.00;;;11.30;;
70270;SDS011;57680;54.292;18.598;2022-10-16T12:08:23;18.93;;;10.37;;
70270;SDS011;57680;54.292;18.598;2022-10-16T12:10:49;19.33;;;10.60;;
70270;SDS011;57680;54.292;18.598;2022-10-16T12:16:07;17.65;;;9.95;;
70270;SDS011;57680;54.292;18.598;2022-10-16T12:18:46;21.13;;;9.27;;
70270;SDS011;57680;54.292;18.598;2022-10-16T12:21:13;19.60;;;10.40;;
70270;SDS011;57680;54.292;18.598;2022-10-16T12:26:22;16.95;;;9.70;;
70270;SDS011;57680;54.292;18.598;2022-10-16T12:28:49;17.33;;;9.88;;
70270;SDS011;57680;54.292;18.598;2022-10-16T12:31:16;17.43;;;8.97;;
70270;SDS011;57680;54.292;18.598;2022-10-16T12:33:56;19.08;;;9.93;;
70270;SDS011;57680;54.292;18.598;2022-10-16T12:36:28;18.00;;;9.00;;
70270;SDS011;57680;54.292;18.598;2022-10-16T12:38:58;16.77;;;9.07;;
70270;SDS011;57680;54.292;18.598;2022-10-16T12:41:26;15.95;;;8.85;;
70270;SDS011;57680;54.292;18.598;2022-10-16T12:43:54;14.03;;;8.10;;
70270;SDS011;57680;54.292;18.598;2022-10-16T12:46:26;14.43;;;8.18;;
70270;SDS011;57680;54.292;18.598;2022-10-16T12:51:41;13.82;;;8.32;;
70270;SDS011;57680;54.292;18.598;2022-10-16T12:54:15;14.30;;;7.85;;
70270;SDS011;57680;54.292;18.598;2022-10-16T12:59:28;14.80;;;8.23;;
70270;SDS011;57680;54.292;18.598;2022-10-16T13:05:02;13.77;;;7.78;;
70270;SDS011;57680;54.292;18.598;2022-10-16T13:10:28;14.03;;;7.67;;
70270;SDS011;57680;54.292;18.598;2022-10-16T13:13:01;12.05;;;6.60;;
70270;SDS011;57680;54.292;18.598;2022-10-16T13:19:03;15.50;;;6.88;;
70270;SDS011;57680;54.292;18.598;2022-10-16T13:27:29;11.23;;;6.70;;
70270;SDS011;57680;54.292;18.598;2022-10-16T13:30:19;11.30;;;6.55;;
70270;SDS011;57680;54.292;18.598;2022-10-16T13:32:49;12.40;;;6.93;;
70270;SDS011;57680;54.292;18.598;2022-10-16T13:35:23;13.15;;;6.60;;
70270;SDS011;57680;54.292;18.598;2022-10-16T13:37:50;11.90;;;7.00;;
70270;SDS011;57680;54.292;18.598;2022-10-16T13:40:23;13.05;;;7.20;;
70270;SDS011;57680;54.292;18.598;2022-10-16T13:42:50;12.75;;;6.82;;
70270;SDS011;57680;54.292;18.598;2022-10-16T13:45:18;13.40;;;7.47;;
70270;SDS011;57680;54.292;18.598;2022-10-16T13:47:45;12.03;;;7.20;;
70270;SDS011;57680;54.292;18.598;2022-10-16T13:50:11;12.98;;;7.03;;
70270;SDS011;57680;54.292;18.598;2022-10-16T13:52:38;11.65;;;6.80;;
70270;SDS011;57680;54.292;18.598;2022-10-16T13:55:09;13.33;;;7.57;;
70270;SDS011;57680;54.292;18.598;2022-10-16T13:57:36;12.57;;;7.20;;
70270;SDS011;57680;54.292;18.598;2022-10-16T14:00:02;13.90;;;7.47;;
70270;SDS011;57680;54.292;18.598;2022-10-16T14:02:35;12.80;;;7.33;;
70270;SDS011;57680;54.292;18.598;2022-10-16T14:05:08;13.20;;;7.30;;
70270;SDS011;57680;54.292;18.598;2022-10-16T14:07:35;12.20;;;7.75;;
70270;SDS011;57680;54.292;18.598;2022-10-16T14:10:04;11.55;;;7.43;;
70270;SDS011;57680;54.292;18.598;2022-10-16T14:12:32;14.07;;;7.30;;
70270;SDS011;57680;54.292;18.598;2022-10-16T14:14:59;13.60;;;7.60;;
70270;SDS011;57680;54.292;18.598;2022-10-16T14:17:26;13.25;;;7.53;;
70270;SDS011;57680;54.292;18.598;2022-10-16T14:19:58;13.82;;;7.47;;
70270;SDS011;57680;54.292;18.598;2022-10-16T14:24:58;15.23;;;8.57;;
70270;SDS011;57680;54.292;18.598;2022-10-16T14:27:34;13.93;;;8.47;;
70270;SDS011;57680;54.292;18.598;2022-10-16T14:32:32;17.42;;;9.57;;
70270;SDS011;57680;54.292;18.598;2022-10-16T14:34:58;15.90;;;9.50;;
70270;SDS011;57680;54.292;18.598;2022-10-16T14:37:24;19.63;;;9.68;;
70270;SDS011;57680;54.292;18.598;2022-10-16T14:39:52;14.77;;;8.90;;
70270;SDS011;57680;54.292;18.598;2022-10-16T14:42:19;18.07;;;9.73;;
70270;SDS011;57680;54.292;18.598;2022-10-16T14:44:48;16.35;;;9.45;;
70270;SDS011;57680;54.292;18.598;2022-10-16T14:47:18;15.53;;;9.07;;
70270;SDS011;57680;54.292;18.598;2022-10-16T14:49:49;16.67;;;9.77;;
70270;SDS011;57680;54.292;18.598;2022-10-16T14:52:16;16.70;;;9.80;;
70270;SDS011;57680;54.292;18.598;2022-10-16T14:54:42;17.25;;;10.10;;
70270;SDS011;57680;54.292;18.598;2022-10-16T14:57:17;16.23;;;9.90;;
70270;SDS011;57680;54.292;18.598;2022-10-16T14:59:45;16.33;;;9.35;;
70270;SDS011;57680;54.292;18.598;2022-10-16T15:04:57;16.73;;;9.73;;
70270;SDS011;57680;54.292;18.598;2022-10-16T15:07:29;17.15;;;10.18;;
70270;SDS011;57680;54.292;18.598;2022-10-16T15:09:54;17.87;;;9.73;;
70270;SDS011;57680;54.292;18.598;2022-10-16T15:12:22;17.00;;;9.57;;
70270;SDS011;57680;54.292;18.598;2022-10-16T15:14:47;16.80;;;9.50;;
70270;SDS011;57680;54.292;18.598;2022-10-16T15:17:13;16.45;;;9.55;;
70270;SDS011;57680;54.292;18.598;2022-10-16T15:19:38;16.40;;;9.57;;
70270;SDS011;57680;54.292;18.598;2022-10-16T15:22:04;16.73;;;9.60;;
70270;SDS011;57680;54.292;18.598;2022-10-16T15:24:29;17.23;;;9.43;;
70270;SDS011;57680;54.292;18.598;2022-10-16T15:26:55;14.70;;;8.80;;
70270;SDS011;57680;54.292;18.598;2022-10-16T15:29:20;16.33;;;9.57;;
70270;SDS011;57680;54.292;18.598;2022-10-16T15:31:46;17.13;;;9.17;;
70270;SDS011;57680;54.292;18.598;2022-10-16T15:34:12;15.32;;;8.73;;
70270;SDS011;57680;54.292;18.598;2022-10-16T15:36:38;17.88;;;10.10;;
70270;SDS011;57680;54.292;18.598;2022-10-16T15:39:15;16.30;;;9.43;;
70270;SDS011;57680;54.292;18.598;2022-10-16T15:41:42;17.20;;;9.80;;
70270;SDS011;57680;54.292;18.598;2022-10-16T15:44:09;16.17;;;9.15;;
70270;SDS011;57680;54.292;18.598;2022-10-16T15:46:35;16.77;;;9.83;;
70270;SDS011;57680;54.292;18.598;2022-10-16T15:49:02;15.85;;;9.95;;
70270;SDS011;57680;54.292;18.598;2022-10-16T15:51:28;18.25;;;10.43;;
70270;SDS011;57680;54.292;18.598;2022-10-16T15:53:57;17.88;;;10.68;;
70270;SDS011;57680;54.292;18.598;2022-10-16T15:56:24;17.70;;;10.70;;
70270;SDS011;57680;54.292;18.598;2022-10-16T15:58:51;20.88;;;11.38;;
70270;SDS011;57680;54.292;18.598;2022-10-16T16:01:17;19.02;;;11.02;;
70270;SDS011;57680;54.292;18.598;2022-10-16T16:03:43;20.93;;;11.00;;
70270;SDS011;57680;54.292;18.598;2022-10-16T16:06:10;21.08;;;11.25;;
70270;SDS011;57680;54.292;18.598;2022-10-16T16:08:37;19.23;;;10.80;;
70270;SDS011;57680;54.292;18.598;2022-10-16T16:11:05;20.50;;;11.60;;
70270;SDS011;57680;54.292;18.598;2022-10-16T16:13:33;18.70;;;11.35;;
70270;SDS011;57680;54.292;18.598;2022-10-16T16:15:59;20.50;;;11.53;;
70270;SDS011;57680;54.292;18.598;2022-10-16T16:18:25;20.75;;;11.25;;